KPNS/PNS METAR and TAF weather

Enter ICAO airport designator
Station Type Date Time Source
KPNS METAR 2019/02/20 06:53 UTC NOAA

KPNS 200653Z 12015G23KT 10SM OVC009 19/17 A3002 RMK AO2 PK WND 11026/0635 SLP168 T01890167


Station Type Date Time Source
KPNS Decoded METAR 2019/02/20 06:53 UTC NOAA

PENSACOLA REGIONAL AIRPORT, FL, United States (KPNS) 30-29N 087-11W 38M
Feb 20, 2019 - 01:53 AM EST / 2019.02.20 0653 UTC
Wind: from the ESE (120 degrees) at 17 MPH (15 KT) gusting to 26 MPH (23 KT):0
Visibility: 10 mile(s):0
Sky conditions: overcast
Temperature: 66.0 F (18.9 C)
Dew Point: 62.1 F (16.7 C)
Relative Humidity: 87%
Pressure (altimeter): 30.02 in. Hg (1016 hPa)
ob: KPNS 200653Z 12015G23KT 10SM OVC009 19/17 A3002 RMK AO2 PK WND 11026/0635 SLP168 T01890167
cycle: 7

Station Type Date Time Source
KPNS TAF 2019/02/20 06:27 UTC NOAA

TAF KPNS 200525Z 2006/2106 12014G21KT 4SM BR OVC004 WS020/17035KT
FM201500 15014G21KT 4SM -SHRA BR OVC007 PROB30 2018/2024 4SM -TSRA BKN015CB
FM210000 17010KT 5SM BR OVC007


Example: see airport list